Time;durP1;ratioP1;P1;durP2;ratioP2;P2;SDS_P1;SDS_P2;PMS_P1;PMS_P2;Temp;Humidity;BMP_temperature;BMP_pressure;BME280_temperature;BME280_humidity;BME280_pressure;Samples;Min_cycle;Max_cycle;Signal;HPM_P1;HPM_P2
2021/06/06 00:01:09;;;;;;;8.10;7.30;;;;;;;17.64;100.00;96841.91;4990392;28;20511;-59
2021/06/06 00:03:43;;;;;;;9.23;8.33;;;;;;;17.78;100.00;96842.22;4977942;28;20190;-59
2021/06/06 00:06:35;;;;;;;7.73;7.00;;;;;;;17.76;100.00;96833.72;4979282;28;20792;-64
2021/06/06 00:09:02;;;;;;;7.30;6.50;;;;;;;17.83;100.00;96836.94;4970623;28;20457;-64
2021/06/06 00:11:33;;;;;;;7.93;6.80;;;;;;;17.83;100.00;96832.41;4990631;28;20923;-59
2021/06/06 00:14:03;;;;;;;8.30;7.47;;;;;;;17.73;100.00;96839.56;4993599;28;20789;-64
2021/06/06 00:16:35;;;;;;;8.03;7.33;;;;;;;17.64;100.00;96820.66;4980213;28;20482;-64
2021/06/06 00:19:01;;;;;;;8.63;7.13;;;;;;;17.63;100.00;96826.22;4978154;28;20479;-59
2021/06/06 00:21:28;;;;;;;8.00;7.10;;;;;;;17.66;100.00;96829.16;4980779;28;20828;-64
2021/06/06 00:23:55;;;;;;;8.30;7.57;;;;;;;17.84;100.00;96831.38;4977211;28;20240;-59
2021/06/06 00:26:21;;;;;;;7.50;6.80;;;;;;;17.95;100.00;96830.34;4977310;28;20508;-59
2021/06/06 00:28:47;;;;;;;8.40;7.43;;;;;;;17.98;100.00;96829.84;4977683;28;20437;-64
2021/06/06 00:31:12;;;;;;;8.63;7.73;;;;;;;17.91;100.00;96825.81;4990243;28;20470;-59
2021/06/06 00:33:38;;;;;;;8.23;7.23;;;;;;;17.89;100.00;96823.41;4993280;28;20205;-64
2021/06/06 00:36:08;;;;;;;9.10;8.07;;;;;;;17.92;100.00;96822.06;4988357;28;20240;-59
2021/06/06 00:38:34;;;;;;;10.00;7.87;;;;;;;17.77;100.00;96814.88;4996814;28;20177;-59
2021/06/06 00:41:00;;;;;;;9.00;8.20;;;;;;;17.71;100.00;96823.06;4995131;28;20841;-59
2021/06/06 00:43:27;;;;;;;8.83;7.30;;;;;;;17.76;100.00;96820.41;4996342;28;20186;-64
2021/06/06 00:45:53;;;;;;;7.90;7.10;;;;;;;17.76;100.00;96815.09;4986593;28;20190;-59
2021/06/06 00:48:19;;;;;;;8.40;7.50;;;;;;;17.92;100.00;96817.56;4979418;28;20528;-58
2021/06/06 00:50:49;;;;;;;10.10;7.87;;;;;;;18.04;100.00;96820.00;4995988;28;20284;-59
2021/06/06 00:53:28;;;;;;;8.50;7.33;;;;;;;18.07;100.00;96824.81;4996201;28;20514;-64
2021/06/06 00:55:53;;;;;;;10.83;7.90;;;;;;;18.10;99.43;96825.06;4995255;28;20784;-59
2021/06/06 00:58:22;;;;;;;8.20;7.40;;;;;;;17.94;100.00;96828.75;4996842;28;20877;-64
2021/06/06 01:00:50;;;;;;;8.60;7.70;;;;;;;17.98;99.88;96818.38;4994975;28;20239;-64
2021/06/06 01:03:18;;;;;;;8.83;7.97;;;;;;;17.96;99.41;96815.19;4991305;28;20449;-59
2021/06/06 01:05:50;;;;;;;7.50;6.80;;;;;;;17.89;99.57;96828.72;4978702;28;20807;-60
2021/06/06 01:08:18;;;;;;;8.73;7.73;;;;;;;17.99;99.46;96822.66;4977190;28;20504;-59
2021/06/06 01:10:46;;;;;;;9.67;8.43;;;;;;;18.07;98.86;96820.28;4977821;28;20905;-65
2021/06/06 01:13:22;;;;;;;9.07;8.10;;;;;;;17.91;99.01;96820.50;4982221;28;20464;-59
2021/06/06 01:15:52;;;;;;;8.53;7.30;;;;;;;18.03;98.82;96826.38;4994526;28;20893;-59
2021/06/06 01:18:31;;;;;;;8.50;7.20;;;;;;;17.90;98.93;96822.34;4994638;28;20429;-59
2021/06/06 01:21:02;;;;;;;9.70;8.70;;;;;;;17.68;100.00;96820.94;4993405;28;20432;-64
2021/06/06 01:24:00;;;;;;;8.73;7.93;;;;;;;17.69;100.00;96820.66;4983254;28;20531;-59
2021/06/06 01:26:34;;;;;;;8.90;8.00;;;;;;;17.62;100.00;96814.78;4994593;28;20432;-59
2021/06/06 01:29:04;;;;;;;9.23;8.10;;;;;;;17.59;100.00;96814.50;4996022;28;20455;-65
2021/06/06 01:31:33;;;;;;;11.87;8.40;;;;;;;17.51;100.00;96809.66;4990562;28;20437;-59
2021/06/06 01:34:03;;;;;;;11.43;8.93;;;;;;;17.48;100.00;96814.44;4976701;28;20444;-58
2021/06/06 01:36:37;;;;;;;11.37;8.50;;;;;;;17.43;100.00;96809.06;4982095;28;20517;-58
2021/06/06 01:39:15;;;;;;;9.53;8.50;;;;;;;17.45;100.00;96811.47;4996008;28;20417;-58
2021/06/06 01:41:46;;;;;;;8.97;8.10;;;;;;;17.48;100.00;96808.34;4976226;28;20779;-58
2021/06/06 01:44:18;;;;;;;8.60;7.70;;;;;;;17.58;100.00;96805.72;4995398;28;20518;-58
2021/06/06 01:46:49;;;;;;;10.07;8.97;;;;;;;17.72;100.00;96806.06;4994048;28;20428;-64
2021/06/06 01:49:16;;;;;;;9.37;8.07;;;;;;;17.75;100.00;96806.34;4993946;28;20424;-64
2021/06/06 01:51:45;;;;;;;8.93;8.13;;;;;;;17.86;100.00;96802.66;4982453;28;20465;-59
2021/06/06 01:54:14;;;;;;;8.97;8.07;;;;;;;17.92;100.00;96795.47;4976175;28;20426;-58
2021/06/06 01:56:42;;;;;;;7.90;7.10;;;;;;;17.80;100.00;96803.69;4976953;28;20440;-64
2021/06/06 01:59:19;;;;;;;9.37;8.47;;;;;;;17.77;100.00;96803.44;4976119;28;20406;-64
2021/06/06 02:01:45;;;;;;;8.40;7.50;;;;;;;17.86;100.00;96802.66;4984934;28;20412;-64
2021/06/06 02:04:11;;;;;;;9.00;8.10;;;;;;;18.05;99.59;96805.63;4984894;28;20954;-58
2021/06/06 02:06:59;;;;;;;9.43;8.53;;;;;;;17.96;99.68;96802.69;4986584;28;20186;-58
2021/06/06 02:09:28;;;;;;;8.43;7.60;;;;;;;17.96;99.53;96801.88;4982211;28;20490;-64
2021/06/06 02:12:04;;;;;;;7.93;7.13;;;;;;;17.73;100.00;96802.34;4994834;28;20547;-59
2021/06/06 02:14:36;;;;;;;9.43;8.30;;;;;;;17.76;100.00;96799.97;4991988;28;21243;-64
2021/06/06 02:17:05;;;;;;;9.53;8.20;;;;;;;17.78;100.00;96794.38;4975839;28;20469;-64
2021/06/06 02:19:32;;;;;;;8.20;7.30;;;;;;;17.63;100.00;96804.97;4981637;28;20471;-64
2021/06/06 02:22:03;;;;;;;8.60;7.60;;;;;;;17.84;100.00;96801.31;4985116;28;20423;-64
2021/06/06 02:24:28;;;;;;;7.93;7.13;;;;;;;17.84;100.00;96799.47;4988829;28;20453;-59
2021/06/06 02:27:10;;;;;;;10.30;8.10;;;;;;;17.75;100.00;96801.03;4975483;28;20750;-64
2021/06/06 02:29:53;;;;;;;10.67;8.30;;;;;;;17.83;100.00;96794.38;4980535;28;20197;-58
2021/06/06 02:32:31;;;;;;;10.70;8.20;;;;;;;17.91;100.00;96797.38;4994547;28;20464;-58
2021/06/06 02:35:30;;;;;;;9.67;8.67;;;;;;;18.01;99.43;96792.06;4990529;28;20427;-59
2021/06/06 02:38:22;;;;;;;8.57;7.23;;;;;;;17.96;99.53;96786.75;4971019;28;20456;-64
2021/06/06 02:41:00;;;;;;;9.20;6.80;;;;;;;17.88;100.00;96795.22;4992254;28;20895;-58
2021/06/06 02:43:36;;;;;;;7.47;6.77;;;;;;;17.92;99.00;96790.97;4994164;28;20507;-59
2021/06/06 02:46:03;;;;;;;8.30;7.50;;;;;;;17.84;100.00;96786.19;4979625;28;20510;-58
2021/06/06 02:48:55;;;;;;;8.43;7.63;;;;;;;17.95;99.42;96795.78;4975174;28;20464;-64
2021/06/06 02:51:23;;;;;;;9.50;7.33;;;;;;;17.70;100.00;96793.00;4975326;28;20426;-64
2021/06/06 02:53:59;;;;;;;7.47;6.80;;;;;;;17.81;100.00;96796.53;4974627;28;20979;-64
2021/06/06 02:56:34;;;;;;;8.27;7.47;;;;;;;17.79;100.00;96790.66;4976000;28;20509;-58
2021/06/06 02:59:06;;;;;;;9.77;8.37;;;;;;;17.90;100.00;96789.66;4979080;28;20479;-64
2021/06/06 03:01:36;;;;;;;7.70;7.00;;;;;;;17.94;100.00;96791.50;4977084;28;20426;-59
2021/06/06 03:04:12;;;;;;;7.90;7.17;;;;;;;17.91;99.90;96783.25;4974950;28;20839;-64
2021/06/06 03:06:45;;;;;;;7.60;6.80;;;;;;;17.77;100.00;96790.13;4987761;28;20436;-58
2021/06/06 03:09:13;;;;;;;7.07;6.30;;;;;;;17.88;100.00;96786.44;4994368;28;20412;-58
2021/06/06 03:11:41;;;;;;;8.50;7.70;;;;;;;17.86;100.00;96786.72;4992225;28;20504;-59
2021/06/06 03:14:10;;;;;;;7.97;7.17;;;;;;;17.91;99.85;96785.91;4987171;28;20437;-58
2021/06/06 03:16:38;;;;;;;7.73;6.93;;;;;;;17.95;98.89;96787.00;4987746;28;20433;-59
2021/06/06 03:19:07;;;;;;;6.60;6.00;;;;;;;17.97;99.17;96788.31;4974696;28;20413;-58
2021/06/06 03:21:39;;;;;;;7.00;6.30;;;;;;;17.92;99.95;96782.19;4975566;28;20425;-58
2021/06/06 03:24:54;;;;;;;7.27;6.10;;;;;;;17.88;99.06;96787.22;4974765;28;20433;-58
2021/06/06 03:27:22;;;;;;;6.87;6.23;;;;;;;17.77;100.00;96776.84;4966914;28;20438;-58
2021/06/06 03:29:58;;;;;;;7.40;6.70;;;;;;;17.90;99.15;96782.44;4974636;28;20846;-59
2021/06/06 03:32:32;;;;;;;6.60;5.30;;;;;;;17.77;99.76;96777.66;4974244;28;20951;-64
2021/06/06 03:34:58;;;;;;;6.70;6.10;;;;;;;17.82;99.45;96774.19;4988169;28;20463;-62
2021/06/06 03:37:24;;;;;;;5.90;5.30;;;;;;;17.84;99.74;96780.06;4993541;28;20456;-64
2021/06/06 03:39:49;;;;;;;6.40;5.80;;;;;;;17.76;100.00;96775.22;4993910;28;20173;-63
2021/06/06 03:42:17;;;;;;;6.20;5.60;;;;;;;17.72;100.00;96774.94;4979324;28;20444;-64
2021/06/06 03:44:42;;;;;;;5.63;5.13;;;;;;;17.83;99.89;96773.94;4974581;28;20201;-64
2021/06/06 03:47:07;;;;;;;8.20;5.00;;;;;;;17.83;99.71;96776.59;4990073;28;20867;-64
2021/06/06 03:49:33;;;;;;;7.40;6.07;;;;;;;17.76;99.68;96773.38;4984473;28;20182;-58
2021/06/06 03:51:58;;;;;;;7.90;5.03;;;;;;;17.73;100.00;96781.88;4986169;28;20216;-64
2021/06/06 03:54:24;;;;;;;8.77;5.13;;;;;;;17.72;100.00;96779.47;4994299;28;20197;-58
2021/06/06 03:56:50;;;;;;;6.07;5.50;;;;;;;17.79;100.00;96777.38;4996149;28;20186;-64
2021/06/06 03:59:17;;;;;;;6.33;5.70;;;;;;;17.80;99.50;96774.47;4987859;28;20181;-58
2021/06/06 04:01:44;;;;;;;6.30;4.63;;;;;;;17.69;100.00;96774.66;4987696;28;20420;-59
2021/06/06 04:04:09;;;;;;;5.33;4.83;;;;;;;17.80;99.87;96774.47;4995825;28;20502;-58
2021/06/06 04:06:35;;;;;;;8.13;5.07;;;;;;;17.72;99.81;96769.63;4991248;28;20481;-59
2021/06/06 04:09:02;;;;;;;7.10;4.80;;;;;;;17.74;100.00;96772.81;4983802;28;20528;-58
2021/06/06 04:11:28;;;;;;;4.73;4.13;;;;;;;17.78;100.00;96770.44;4997112;28;20178;-59
2021/06/06 04:13:53;;;;;;;4.63;4.20;;;;;;;17.75;100.00;96769.13;4995207;28;20453;-59
2021/06/06 04:16:19;;;;;;;5.10;4.60;;;;;;;17.75;99.78;96763.00;4997448;28;20431;-58
2021/06/06 04:18:44;;;;;;;10.03;4.33;;;;;;;17.51;100.00;96769.81;4990471;28;20178;-64
2021/06/06 04:21:29;;;;;;;7.53;4.80;;;;;;;17.45;100.00;96769.75;4982249;28;20600;-64
2021/06/06 04:23:55;;;;;;;15.17;5.10;;;;;;;17.43;100.00;96768.41;4989513;28;20260;-64
2021/06/06 04:26:22;;;;;;;7.60;4.93;;;;;;;17.50;100.00;96774.34;4977736;28;20413;-64
2021/06/06 04:28:48;;;;;;;7.00;4.40;;;;;;;17.60;100.00;96770.91;4983247;28;20178;-59
2021/06/06 04:31:15;;;;;;;5.20;4.50;;;;;;;17.36;100.00;96763.34;4997227;28;20409;-58
2021/06/06 04:33:40;;;;;;;5.40;4.70;;;;;;;17.50;100.00;96761.06;4994745;28;20514;-64
2021/06/06 04:36:07;;;;;;;4.77;4.33;;;;;;;17.65;100.00;96769.06;4984063;28;20814;-58
2021/06/06 04:38:33;;;;;;;7.30;4.30;;;;;;;17.60;100.00;96777.03;4994455;28;20194;-58
2021/06/06 04:41:01;;;;;;;5.80;4.50;;;;;;;17.48;100.00;96771.91;4977600;28;20412;-64
2021/06/06 04:43:28;;;;;;;7.27;5.33;;;;;;;17.48;100.00;96765.03;4977634;28;20237;-64
2021/06/06 04:45:54;;;;;;;8.30;4.97;;;;;;;17.53;100.00;96768.50;4996954;28;20431;-59
2021/06/06 04:48:29;;;;;;;8.90;4.97;;;;;;;17.47;100.00;96772.19;4997145;28;20421;-64
2021/06/06 04:51:02;;;;;;;9.53;5.47;;;;;;;17.45;100.00;96768.94;4990845;28;20428;-64
2021/06/06 04:53:27;;;;;;;9.27;5.67;;;;;;;17.55;100.00;96773.56;4976787;28;20834;-59
2021/06/06 04:55:56;;;;;;;8.10;6.03;;;;;;;17.40;100.00;96768.94;4992817;28;20437;-58
2021/06/06 04:58:22;;;;;;;8.30;5.67;;;;;;;17.43;100.00;96768.41;4977368;28;20247;-64
2021/06/06 05:00:49;;;;;;;8.43;5.77;;;;;;;17.29;100.00;96770.75;4994624;28;20433;-64
2021/06/06 05:03:16;;;;;;;8.10;5.83;;;;;;;17.26;100.00;96767.81;4996078;28;20424;-64
2021/06/06 05:05:42;;;;;;;5.97;4.70;;;;;;;17.37;100.00;96761.50;4993928;28;20460;-64
2021/06/06 05:08:09;;;;;;;9.40;5.60;;;;;;;17.42;100.00;96769.47;4996144;28;20416;-58
2021/06/06 05:10:37;;;;;;;10.20;6.00;;;;;;;17.46;100.00;96767.91;4983798;28;20511;-58
2021/06/06 05:13:04;;;;;;;8.63;5.43;;;;;;;17.45;100.00;96766.28;4976313;28;20468;-64
2021/06/06 05:15:30;;;;;;;10.33;5.63;;;;;;;17.43;100.00;96763.91;4977859;28;20448;-58
2021/06/06 05:17:56;;;;;;;10.30;6.43;;;;;;;17.36;100.00;96766.00;4976811;28;20960;-58
2021/06/06 05:20:26;;;;;;;11.10;6.80;;;;;;;17.32;100.00;96774.72;4980144;28;20433;-58
2021/06/06 05:22:51;;;;;;;11.03;5.90;;;;;;;17.15;100.00;96769.59;4976186;28;20520;-58
2021/06/06 05:25:17;;;;;;;9.90;6.33;;;;;;;17.28;100.00;96771.00;4977710;28;20512;-63
2021/06/06 05:27:43;;;;;;;9.93;5.77;;;;;;;17.19;100.00;96773.31;4988340;28;20251;-59
2021/06/06 05:30:12;;;;;;;9.63;5.90;;;;;;;17.21;100.00;96770.44;4989593;28;20927;-64
2021/06/06 05:32:37;;;;;;;15.23;6.97;;;;;;;17.25;100.00;96774.16;4995576;28;20521;-58
2021/06/06 05:35:04;;;;;;;11.87;6.70;;;;;;;17.31;100.00;96773.13;4987941;28;20425;-58
2021/06/06 05:37:30;;;;;;;13.67;7.93;;;;;;;17.35;100.00;96774.22;4976373;28;20225;-64
2021/06/06 05:39:55;;;;;;;13.73;7.77;;;;;;;17.29;100.00;96776.06;4977436;28;20820;-64
2021/06/06 05:42:21;;;;;;;11.80;8.00;;;;;;;17.35;100.00;96775.03;4976001;28;20595;-58
2021/06/06 05:44:46;;;;;;;10.67;7.70;;;;;;;17.25;100.00;96774.16;4987982;28;20202;-64
2021/06/06 05:47:11;;;;;;;14.70;9.70;;;;;;;17.40;100.00;96779.56;4987150;28;20580;-64
2021/06/06 05:49:37;;;;;;;13.03;8.40;;;;;;;17.24;100.00;96780.53;4995804;28;20174;-64
2021/06/06 05:52:04;;;;;;;16.97;9.70;;;;;;;17.21;100.00;96783.72;4993438;28;20204;-58
2021/06/06 05:54:30;;;;;;;9.70;8.13;;;;;;;17.38;100.00;96779.00;4994120;28;20663;-59
2021/06/06 05:56:56;;;;;;;11.23;9.17;;;;;;;17.51;100.00;96783.91;4976186;28;20746;-64
2021/06/06 05:59:21;;;;;;;12.17;8.67;;;;;;;17.24;100.00;96781.34;4976422;28;20488;-64
2021/06/06 06:01:47;;;;;;;10.57;8.67;;;;;;;17.26;100.00;96773.91;4993307;28;20232;-65
2021/06/06 06:04:12;;;;;;;15.90;10.20;;;;;;;17.13;100.00;96779.69;4995296;28;20528;-58
2021/06/06 06:06:38;;;;;;;10.63;9.00;;;;;;;17.12;100.00;96772.75;4977818;28;20276;-64
2021/06/06 06:09:04;;;;;;;14.30;11.30;;;;;;;17.16;100.00;96775.69;4988170;28;20177;-58
2021/06/06 06:11:30;;;;;;;12.87;10.60;;;;;;;17.41;100.00;96775.84;4994999;28;20177;-59
2021/06/06 06:13:56;;;;;;;12.90;10.17;;;;;;;17.56;100.00;96775.94;4983586;28;20841;-58
2021/06/06 06:16:25;;;;;;;15.43;11.30;;;;;;;17.37;100.00;96782.75;4983511;28;20458;-64
2021/06/06 06:18:51;;;;;;;10.43;9.33;;;;;;;17.47;100.00;96777.50;4978503;28;20182;-59
2021/06/06 06:21:18;;;;;;;16.37;11.57;;;;;;;17.48;100.00;96777.22;4975535;28;20547;-64
2021/06/06 06:23:44;;;;;;;13.77;9.67;;;;;;;17.66;100.00;96780.50;4976189;28;20528;-64
2021/06/06 06:26:10;;;;;;;12.77;9.83;;;;;;;17.63;100.00;96781.81;4975634;28;20460;-64
2021/06/06 06:28:37;;;;;;;12.97;9.97;;;;;;;17.68;100.00;96778.41;4981984;28;20435;-59
2021/06/06 06:31:03;;;;;;;12.67;11.37;;;;;;;17.80;100.00;96776.31;4994855;28;20771;-58
2021/06/06 06:33:28;;;;;;;11.60;9.97;;;;;;;17.89;100.00;96782.72;4982583;28;20469;-59
2021/06/06 06:35:54;;;;;;;11.33;9.20;;;;;;;18.10;100.00;96789.72;4975495;28;20505;-58
2021/06/06 06:38:21;;;;;;;10.10;8.87;;;;;;;18.25;99.94;96787.88;4978571;28;20205;-64
2021/06/06 06:40:47;;;;;;;10.13;8.37;;;;;;;18.31;99.41;96791.34;4990290;28;20196;-59
2021/06/06 06:43:12;;;;;;;10.00;8.50;;;;;;;18.13;98.86;96786.53;4976483;28;20967;-64
2021/06/06 06:45:40;;;;;;;9.80;8.07;;;;;;;18.15;99.65;96790.50;4994636;28;20180;-64
2021/06/06 06:48:10;;;;;;;7.93;7.17;;;;;;;18.17;99.40;96792.94;4993643;28;20205;-64
2021/06/06 06:50:36;;;;;;;7.43;6.73;;;;;;;17.81;100.00;96793.88;4993999;28;20424;-58
2021/06/06 06:53:02;;;;;;;8.20;7.37;;;;;;;17.80;100.00;96798.38;4984272;28;20465;-64
2021/06/06 06:55:28;;;;;;;7.40;6.70;;;;;;;17.92;100.00;96798.94;4992544;28;20495;-59
2021/06/06 06:57:56;;;;;;;9.10;8.07;;;;;;;18.00;99.86;96803.78;4994427;28;20507;-58
2021/06/06 07:00:26;;;;;;;9.50;8.40;;;;;;;18.08;99.58;96799.81;4976385;28;20453;-59
2021/06/06 07:02:52;;;;;;;10.00;8.43;;;;;;;18.01;99.60;96800.03;4974578;28;20433;-59
2021/06/06 07:05:17;;;;;;;9.40;8.47;;;;;;;18.05;99.57;96801.13;4975725;28;20438;-64
2021/06/06 07:07:43;;;;;;;10.13;8.67;;;;;;;17.97;99.42;96803.50;4983338;28;20194;-59
2021/06/06 07:10:12;;;;;;;12.17;10.07;;;;;;;17.99;99.70;96799.50;4992526;28;20252;-58
2021/06/06 07:12:38;;;;;;;12.90;10.13;;;;;;;18.12;99.32;96792.88;4993633;28;20460;-59
2021/06/06 07:15:09;;;;;;;10.40;9.30;;;;;;;18.03;99.14;96797.13;4992479;28;20428;-58
2021/06/06 07:17:35;;;;;;;10.57;9.57;;;;;;;18.04;99.23;96801.41;4994305;28;20416;-64
2021/06/06 07:20:02;;;;;;;14.53;11.00;;;;;;;18.13;99.28;96797.97;4981041;28;20516;-64
2021/06/06 07:22:28;;;;;;;11.30;10.20;;;;;;;18.15;98.98;96793.16;4982851;28;20232;-58
2021/06/06 07:24:53;;;;;;;14.23;12.03;;;;;;;18.23;98.95;96805.97;4992162;28;20440;-59
2021/06/06 07:27:19;;;;;;;11.10;10.00;;;;;;;18.10;98.83;96797.69;4994151;28;20409;-64
2021/06/06 07:29:45;;;;;;;12.17;10.80;;;;;;;17.98;99.61;96797.91;4991730;28;20580;-59
2021/06/06 07:32:12;;;;;;;12.63;10.93;;;;;;;18.06;99.62;96805.38;4993723;28;20452;-59
2021/06/06 07:34:37;;;;;;;14.07;11.20;;;;;;;17.88;100.00;96800.53;4981789;28;20209;-59
2021/06/06 07:37:06;;;;;;;10.90;9.80;;;;;;;17.96;100.00;96808.00;4981494;28;20432;-59
2021/06/06 07:39:32;;;;;;;11.30;10.20;;;;;;;18.04;100.00;96802.19;4986761;28;20195;-64
2021/06/06 07:41:59;;;;;;;11.70;10.00;;;;;;;18.13;99.86;96803.28;4978921;28;20568;-59
2021/06/06 07:44:25;;;;;;;10.73;9.73;;;;;;;18.26;99.69;96807.31;4992137;28;20445;-58
2021/06/06 07:46:52;;;;;;;10.47;9.47;;;;;;;18.22;99.07;96814.22;4993744;28;20409;-58
2021/06/06 07:49:19;;;;;;;12.50;11.20;;;;;;;18.19;98.96;96810.22;4992168;28;20790;-64
2021/06/06 07:51:44;;;;;;;14.00;11.27;;;;;;;18.29;98.74;96812.91;4993539;28;20416;-59
2021/06/06 07:54:10;;;;;;;13.00;11.70;;;;;;;18.26;98.89;96812.63;4992357;28;20499;-59
2021/06/06 07:56:36;;;;;;;12.87;10.87;;;;;;;18.37;98.25;96811.59;4975571;28;20537;-64
2021/06/06 07:59:04;;;;;;;12.93;10.60;;;;;;;18.36;98.36;96813.44;4977282;28;20169;-59
2021/06/06 08:01:29;;;;;;;12.03;10.57;;;;;;;18.29;98.08;96814.75;4982846;28;20443;-65
2021/06/06 08:03:56;;;;;;;13.20;9.73;;;;;;;18.41;98.42;96815.34;4991918;28;20440;-64
2021/06/06 08:06:22;;;;;;;12.30;9.90;;;;;;;18.23;98.26;96813.13;4974210;28;20236;-64
2021/06/06 08:08:48;;;;;;;11.70;9.80;;;;;;;18.06;99.36;96813.34;4975321;28;20908;-58
2021/06/06 08:11:13;;;;;;;11.63;10.13;;;;;;;18.12;99.51;96812.31;4994006;28;20423;-64
2021/06/06 08:13:39;;;;;;;9.07;8.03;;;;;;;18.29;98.79;96818.22;4991449;28;20214;-64
2021/06/06 08:16:06;;;;;;;12.00;10.00;;;;;;;18.38;98.48;96813.19;4990630;28;20528;-64
2021/06/06 08:18:36;;;;;;;12.43;10.23;;;;;;;18.35;98.76;96819.03;4974348;28;20630;-59
2021/06/06 08:21:08;;;;;;;11.83;10.50;;;;;;;18.13;99.53;96813.13;4989096;28;20416;-58
2021/06/06 08:23:34;;;;;;;14.33;10.27;;;;;;;18.23;99.61;96807.81;4992490;28;20428;-64
2021/06/06 08:26:00;;;;;;;11.73;10.13;;;;;;;18.22;99.52;96822.19;4980315;28;20433;-65
2021/06/06 08:28:26;;;;;;;12.53;10.57;;;;;;;18.11;99.88;96812.59;4973969;28;20414;-59
2021/06/06 08:30:55;;;;;;;12.57;11.20;;;;;;;18.05;99.71;96802.97;4974315;28;20181;-58
2021/06/06 08:33:24;;;;;;;14.27;10.70;;;;;;;18.17;99.86;96809.66;4973466;28;20457;-58
2021/06/06 08:35:51;;;;;;;15.27;10.87;;;;;;;18.22;99.71;96811.56;4974242;28;20418;-59
2021/06/06 08:38:17;;;;;;;12.23;10.00;;;;;;;18.21;99.26;96807.28;4973947;28;20402;-58
2021/06/06 08:41:24;;;;;;;11.93;8.87;;;;;;;18.17;99.43;96812.31;4974940;28;20417;-58
2021/06/06 08:44:16;;;;;;;11.00;8.87;;;;;;;18.12;99.75;96801.69;4901614;29;20207;-65
2021/06/06 08:47:09;;;;;;;12.03;9.37;;;;;;;18.08;99.89;96802.47;4917518;29;20907;-59
2021/06/06 08:49:44;;;;;;;14.30;10.43;;;;;;;18.21;99.72;96800.09;4899304;29;20428;-58
2021/06/06 08:52:27;;;;;;;13.70;11.00;;;;;;;18.10;99.74;96808.34;4898456;29;20459;-58
2021/06/06 08:55:06;;;;;;;14.40;10.80;;;;;;;18.21;100.00;96802.75;4898780;29;20504;-58
2021/06/06 08:57:40;;;;;;;14.70;10.87;;;;;;;18.42;99.43;96806.31;4898987;29;20900;-58
2021/06/06 09:00:21;;;;;;;15.37;11.90;;;;;;;18.39;98.86;96804.13;4899969;29;20413;-59
2021/06/06 09:02:55;;;;;;;15.77;12.27;;;;;;;18.54;98.70;96803.38;4907689;29;20497;-59
2021/06/06 09:06:01;;;;;;;15.00;12.27;;;;;;;18.42;98.46;96806.31;4917206;29;20934;-65
2021/06/06 09:08:30;;;;;;;14.37;11.90;;;;;;;18.50;98.97;96805.78;4898788;29;20484;-65
2021/06/06 09:10:58;;;;;;;18.00;12.20;;;;;;;18.49;98.35;96806.84;4917101;29;20428;-58
2021/06/06 09:13:27;;;;;;;15.00;11.77;;;;;;;18.24;98.82;96812.09;4918418;28;20475;-58
2021/06/06 09:16:17;;;;;;;15.90;12.80;;;;;;;18.30;100.00;96813.69;4972745;28;20420;-61
2021/06/06 09:18:46;;;;;;;16.07;11.20;;;;;;;18.52;99.45;96808.97;4989781;28;20499;-63
2021/06/06 09:21:18;;;;;;;17.17;12.67;;;;;;;18.60;98.87;96816.44;4984962;28;20491;-62
2021/06/06 09:23:44;;;;;;;17.53;13.20;;;;;;;18.41;99.36;96821.47;4973984;28;20422;-59
2021/06/06 09:26:20;;;;;;;17.20;12.83;;;;;;;18.58;98.53;96815.91;4991918;28;21078;-60
2021/06/06 09:29:04;;;;;;;15.20;12.23;;;;;;;18.67;98.05;96822.31;4992176;28;20839;-64
2021/06/06 09:31:29;;;;;;;18.60;14.00;;;;;;;18.54;98.06;96814.03;4988422;28;20795;-60
2021/06/06 09:33:55;;;;;;;17.00;13.23;;;;;;;18.73;97.50;96815.13;4972469;28;20469;-64
2021/06/06 09:36:23;;;;;;;15.83;12.40;;;;;;;18.73;97.28;96812.47;4972596;28;20694;-65
2021/06/06 09:39:16;;;;;;;16.43;13.10;;;;;;;18.60;97.49;96812.97;4972005;28;20640;-65
2021/06/06 09:41:52;;;;;;;17.60;14.23;;;;;;;18.52;97.22;96819.63;4972134;28;20428;-66
2021/06/06 09:44:20;;;;;;;14.90;11.97;;;;;;;18.38;97.86;96816.66;4972435;28;20421;-64
2021/06/06 09:47:08;;;;;;;17.80;13.73;;;;;;;18.33;97.95;96823.81;4973556;28;20533;-64
2021/06/06 09:49:35;;;;;;;16.90;13.00;;;;;;;18.51;97.54;96827.88;4965688;28;20437;-64
2021/06/06 09:52:12;;;;;;;15.97;14.13;;;;;;;18.51;97.67;96830.53;4972325;28;20450;-64
2021/06/06 09:54:38;;;;;;;16.10;13.50;;;;;;;18.38;98.94;96829.16;4991672;28;20440;-64
2021/06/06 09:57:20;;;;;;;18.33;14.23;;;;;;;18.48;98.14;96831.06;4991671;28;20421;-63
2021/06/06 09:59:46;;;;;;;17.70;14.60;;;;;;;18.43;97.49;96831.84;4991666;28;20811;-63
2021/06/06 10:02:11;;;;;;;17.70;14.43;;;;;;;18.50;97.25;96832.38;4990700;28;20463;-64
2021/06/06 10:04:40;;;;;;;18.07;14.87;;;;;;;18.60;97.45;96820.97;4991450;28;20217;-63
2021/06/06 10:07:28;;;;;;;17.83;15.93;;;;;;;18.40;97.74;96833.16;4981735;28;20190;-64
2021/06/06 10:09:56;;;;;;;18.53;16.37;;;;;;;18.54;97.48;96835.31;4972049;28;20505;-64
2021/06/06 10:12:32;;;;;;;22.40;17.30;;;;;;;18.62;97.29;96832.16;4971511;28;20446;-64
2021/06/06 10:15:47;;;;;;;21.43;17.70;;;;;;;18.70;96.84;96836.97;4971538;28;20405;-63
2021/06/06 10:18:16;;;;;;;26.77;18.10;;;;;;;18.63;97.18;96831.06;4967324;28;20480;-64
2021/06/06 10:20:45;;;;;;;18.77;15.73;;;;;;;18.73;96.89;96839.91;4971650;28;20432;-63
2021/06/06 10:23:15;;;;;;;20.50;16.23;;;;;;;18.75;96.60;96844.94;4976002;28;20559;-63
2021/06/06 10:25:45;;;;;;;21.33;19.03;;;;;;;18.62;97.40;96840.13;4991115;28;20463;-64
2021/06/06 10:28:12;;;;;;;22.67;17.97;;;;;;;18.41;98.18;96844.63;4986589;28;20790;-64
2021/06/06 10:31:01;;;;;;;24.93;18.70;;;;;;;18.62;98.17;96843.59;4971772;28;20413;-63
2021/06/06 10:33:34;;;;;;;26.27;19.63;;;;;;;18.85;97.72;96839.63;4944477;28;20917;-64
2021/06/06 10:36:01;;;;;;;22.20;19.37;;;;;;;18.70;96.95;96844.94;4986078;28;20470;-64
2021/06/06 10:38:29;;;;;;;23.20;18.90;;;;;;;18.79;97.55;96848.69;4977286;28;21114;-63
2021/06/06 10:40:59;;;;;;;25.43;20.23;;;;;;;18.97;96.86;96850.81;4991078;28;20496;-64
2021/06/06 10:43:36;;;;;;;23.80;20.47;;;;;;;18.90;96.78;96845.75;4987362;28;20444;-64
2021/06/06 10:46:25;;;;;;;25.77;22.23;;;;;;;18.93;96.40;96844.44;4971580;28;20408;-63
2021/06/06 10:49:26;;;;;;;23.60;21.10;;;;;;;18.98;96.43;96837.25;4979723;28;20431;-63
2021/06/06 10:52:04;;;;;;;25.70;22.60;;;;;;;18.82;96.92;96843.63;4975125;28;20932;-64
2021/06/06 10:54:36;;;;;;;26.80;22.27;;;;;;;18.73;96.24;96836.44;4977163;28;20461;-64
2021/06/06 10:57:04;;;;;;;24.40;21.70;;;;;;;18.65;96.65;96842.25;4974610;28;20427;-63
2021/06/06 10:59:34;;;;;;;28.77;21.83;;;;;;;18.28;98.43;96835.25;4978564;28;20472;-63
2021/06/06 11:02:00;;;;;;;28.60;24.30;;;;;;;18.34;98.44;96836.06;4970456;28;20421;-63
2021/06/06 11:04:46;;;;;;;34.50;26.60;;;;;;;18.34;98.84;96836.84;4974627;28;21077;-63
2021/06/06 11:07:45;;;;;;;35.80;26.17;;;;;;;18.45;98.31;96835.84;4985311;28;20499;-64
2021/06/06 11:10:16;;;;;;;39.77;28.80;;;;;;;18.33;99.04;96835.25;4966223;28;20851;-64
2021/06/06 11:12:45;;;;;;;39.37;29.50;;;;;;;18.50;98.59;96831.59;4970817;28;20449;-64
2021/06/06 11:15:19;;;;;;;38.30;27.73;;;;;;;18.72;97.83;96826.81;4971607;28;20429;-65
2021/06/06 11:17:44;;;;;;;38.00;30.37;;;;;;;18.76;98.68;96828.69;4984649;28;20490;-68
2021/06/06 11:20:30;;;;;;;39.20;30.13;;;;;;;18.81;98.35;96818.03;4990456;28;20401;-66
2021/06/06 11:22:56;;;;;;;39.70;31.40;;;;;;;18.53;99.16;96823.91;4977883;28;20251;-67
2021/06/06 11:25:28;;;;;;;40.63;30.67;;;;;;;18.40;99.17;96819.84;4959574;28;20429;-69
2021/06/06 11:27:59;;;;;;;45.73;33.77;;;;;;;18.56;99.20;96819.88;4988648;28;20958;-63
2021/06/06 11:30:24;;;;;;;47.47;34.60;;;;;;;18.52;99.07;96816.16;4990392;28;20899;-63
2021/06/06 11:33:03;;;;;;;49.73;34.27;;;;;;;18.72;98.60;96822.31;4989688;28;20459;-66
2021/06/06 11:35:35;;;;;;;47.40;33.90;;;;;;;18.80;97.68;96811.13;4990260;28;20249;-66
2021/06/06 11:38:13;;;;;;;49.97;34.77;;;;;;;18.81;97.36;96814.56;4971191;28;20789;-64